sensor_id;sensor_type;location;lat;lon;timestamp;P1;durP1;ratioP1;P2;durP2;ratioP2
42742;SDS011;28397;44.552;-0.848;2023-03-01T00:00:14;103.30;;;59.35;;
42742;SDS011;28397;44.552;-0.848;2023-03-01T00:02:40;78.50;;;46.35;;
42742;SDS011;28397;44.552;-0.848;2023-03-01T00:05:06;39.53;;;26.73;;
42742;SDS011;28397;44.552;-0.848;2023-03-01T00:07:32;38.17;;;26.45;;
42742;SDS011;28397;44.552;-0.848;2023-03-01T00:09:58;48.28;;;27.13;;
42742;SDS011;28397;44.552;-0.848;2023-03-01T00:12:24;44.30;;;26.27;;
42742;SDS011;28397;44.552;-0.848;2023-03-01T00:14:49;70.03;;;38.30;;
42742;SDS011;28397;44.552;-0.848;2023-03-01T00:17:15;145.77;;;69.38;;
42742;SDS011;28397;44.552;-0.848;2023-03-01T00:19:42;80.43;;;50.38;;
42742;SDS011;28397;44.552;-0.848;2023-03-01T00:22:07;57.05;;;39.22;;
42742;SDS011;28397;44.552;-0.848;2023-03-01T00:24:34;40.55;;;28.73;;
42742;SDS011;28397;44.552;-0.848;2023-03-01T00:27:00;38.45;;;24.42;;
42742;SDS011;28397;44.552;-0.848;2023-03-01T00:29:26;35.90;;;22.38;;
42742;SDS011;28397;44.552;-0.848;2023-03-01T00:31:51;43.55;;;24.83;;
42742;SDS011;28397;44.552;-0.848;2023-03-01T00:34:17;46.15;;;27.55;;
42742;SDS011;28397;44.552;-0.848;2023-03-01T00:36:43;58.25;;;31.90;;
42742;SDS011;28397;44.552;-0.848;2023-03-01T00:39:13;42.17;;;24.60;;
42742;SDS011;28397;44.552;-0.848;2023-03-01T00:41:39;51.40;;;28.70;;
42742;SDS011;28397;44.552;-0.848;2023-03-01T00:44:05;51.28;;;34.72;;
42742;SDS011;28397;44.552;-0.848;2023-03-01T00:46:31;53.50;;;31.40;;
42742;SDS011;28397;44.552;-0.848;2023-03-01T00:48:58;48.25;;;27.40;;
42742;SDS011;28397;44.552;-0.848;2023-03-01T00:51:27;55.45;;;30.05;;
42742;SDS011;28397;44.552;-0.848;2023-03-01T00:53:54;108.03;;;45.33;;
42742;SDS011;28397;44.552;-0.848;2023-03-01T00:56:21;82.60;;;35.17;;
42742;SDS011;28397;44.552;-0.848;2023-03-01T00:58:48;96.88;;;53.38;;
42742;SDS011;28397;44.552;-0.848;2023-03-01T01:01:15;89.88;;;51.50;;
42742;SDS011;28397;44.552;-0.848;2023-03-01T01:06:37;51.40;;;24.67;;
42742;SDS011;28397;44.552;-0.848;2023-03-01T01:09:07;42.80;;;22.30;;
42742;SDS011;28397;44.552;-0.848;2023-03-01T01:11:35;30.40;;;16.55;;
42742;SDS011;28397;44.552;-0.848;2023-03-01T01:14:03;19.63;;;12.98;;
42742;SDS011;28397;44.552;-0.848;2023-03-01T01:16:29;46.83;;;25.65;;
42742;SDS011;28397;44.552;-0.848;2023-03-01T01:18:55;21.88;;;14.93;;
42742;SDS011;28397;44.552;-0.848;2023-03-01T01:21:22;32.28;;;20.65;;
42742;SDS011;28397;44.552;-0.848;2023-03-01T01:23:49;50.33;;;29.55;;
42742;SDS011;28397;44.552;-0.848;2023-03-01T01:26:19;28.38;;;18.50;;
42742;SDS011;28397;44.552;-0.848;2023-03-01T01:28:55;25.42;;;17.50;;
42742;SDS011;28397;44.552;-0.848;2023-03-01T01:31:21;24.85;;;15.30;;
42742;SDS011;28397;44.552;-0.848;2023-03-01T01:33:51;48.60;;;30.42;;
42742;SDS011;28397;44.552;-0.848;2023-03-01T01:36:18;31.48;;;19.83;;
42742;SDS011;28397;44.552;-0.848;2023-03-01T01:38:44;24.92;;;19.08;;
42742;SDS011;28397;44.552;-0.848;2023-03-01T01:41:10;28.42;;;18.67;;
42742;SDS011;28397;44.552;-0.848;2023-03-01T01:43:47;28.80;;;18.25;;
42742;SDS011;28397;44.552;-0.848;2023-03-01T01:46:33;26.90;;;17.35;;
42742;SDS011;28397;44.552;-0.848;2023-03-01T01:49:06;28.75;;;18.50;;
42742;SDS011;28397;44.552;-0.848;2023-03-01T01:51:42;30.65;;;20.70;;
42742;SDS011;28397;44.552;-0.848;2023-03-01T01:54:21;28.85;;;20.73;;
42742;SDS011;28397;44.552;-0.848;2023-03-01T01:57:11;31.58;;;21.88;;
42742;SDS011;28397;44.552;-0.848;2023-03-01T01:59:41;24.20;;;19.25;;
42742;SDS011;28397;44.552;-0.848;2023-03-01T02:02:10;24.23;;;19.60;;
42742;SDS011;28397;44.552;-0.848;2023-03-01T02:04:37;23.40;;;19.58;;
42742;SDS011;28397;44.552;-0.848;2023-03-01T02:09:40;23.38;;;19.92;;
42742;SDS011;28397;44.552;-0.848;2023-03-01T02:12:09;19.70;;;15.25;;
42742;SDS011;28397;44.552;-0.848;2023-03-01T02:14:35;23.35;;;15.02;;
42742;SDS011;28397;44.552;-0.848;2023-03-01T02:17:00;20.13;;;13.23;;
42742;SDS011;28397;44.552;-0.848;2023-03-01T02:20:14;17.83;;;12.20;;
42742;SDS011;28397;44.552;-0.848;2023-03-01T02:22:41;18.27;;;12.32;;
42742;SDS011;28397;44.552;-0.848;2023-03-01T02:27:49;17.00;;;13.68;;
42742;SDS011;28397;44.552;-0.848;2023-03-01T02:30:35;18.13;;;12.63;;
42742;SDS011;28397;44.552;-0.848;2023-03-01T02:33:02;19.70;;;12.77;;
42742;SDS011;28397;44.552;-0.848;2023-03-01T02:35:30;19.73;;;12.93;;
42742;SDS011;28397;44.552;-0.848;2023-03-01T02:37:58;18.98;;;13.00;;
42742;SDS011;28397;44.552;-0.848;2023-03-01T02:40:25;19.10;;;13.48;;
42742;SDS011;28397;44.552;-0.848;2023-03-01T02:42:57;20.45;;;12.90;;
42742;SDS011;28397;44.552;-0.848;2023-03-01T02:45:24;21.00;;;13.73;;
42742;SDS011;28397;44.552;-0.848;2023-03-01T02:47:50;17.52;;;14.23;;
42742;SDS011;28397;44.552;-0.848;2023-03-01T02:50:38;22.38;;;17.20;;
42742;SDS011;28397;44.552;-0.848;2023-03-01T02:55:47;266.33;;;98.57;;
42742;SDS011;28397;44.552;-0.848;2023-03-01T02:58:13;131.77;;;53.63;;
42742;SDS011;28397;44.552;-0.848;2023-03-01T03:00:40;151.18;;;62.28;;
42742;SDS011;28397;44.552;-0.848;2023-03-01T03:03:19;144.93;;;59.90;;
42742;SDS011;28397;44.552;-0.848;2023-03-01T03:05:45;152.70;;;63.08;;
42742;SDS011;28397;44.552;-0.848;2023-03-01T03:08:12;134.00;;;55.30;;
42742;SDS011;28397;44.552;-0.848;2023-03-01T03:10:39;67.13;;;34.15;;
42742;SDS011;28397;44.552;-0.848;2023-03-01T03:13:09;59.67;;;30.70;;
42742;SDS011;28397;44.552;-0.848;2023-03-01T03:15:36;50.83;;;28.17;;
42742;SDS011;28397;44.552;-0.848;2023-03-01T03:18:04;138.27;;;65.05;;
42742;SDS011;28397;44.552;-0.848;2023-03-01T03:20:32;141.52;;;67.72;;
42742;SDS011;28397;44.552;-0.848;2023-03-01T03:22:58;149.98;;;69.90;;
42742;SDS011;28397;44.552;-0.848;2023-03-01T03:25:24;55.55;;;29.10;;
42742;SDS011;28397;44.552;-0.848;2023-03-01T03:27:51;44.97;;;24.40;;
42742;SDS011;28397;44.552;-0.848;2023-03-01T03:30:27;29.65;;;17.88;;
42742;SDS011;28397;44.552;-0.848;2023-03-01T03:32:54;19.77;;;13.15;;
42742;SDS011;28397;44.552;-0.848;2023-03-01T03:35:22;19.85;;;12.35;;
42742;SDS011;28397;44.552;-0.848;2023-03-01T03:37:56;20.17;;;12.05;;
42742;SDS011;28397;44.552;-0.848;2023-03-01T03:40:27;16.25;;;11.05;;
42742;SDS011;28397;44.552;-0.848;2023-03-01T03:42:54;14.32;;;9.48;;
42742;SDS011;28397;44.552;-0.848;2023-03-01T03:45:20;12.50;;;9.25;;
42742;SDS011;28397;44.552;-0.848;2023-03-01T03:47:46;15.30;;;10.48;;
42742;SDS011;28397;44.552;-0.848;2023-03-01T03:50:13;17.90;;;10.55;;
42742;SDS011;28397;44.552;-0.848;2023-03-01T03:52:40;17.45;;;10.63;;
42742;SDS011;28397;44.552;-0.848;2023-03-01T03:55:06;15.13;;;9.95;;
42742;SDS011;28397;44.552;-0.848;2023-03-01T03:57:38;17.23;;;10.88;;
42742;SDS011;28397;44.552;-0.848;2023-03-01T04:00:06;23.73;;;14.27;;
42742;SDS011;28397;44.552;-0.848;2023-03-01T04:02:38;77.05;;;34.03;;
42742;SDS011;28397;44.552;-0.848;2023-03-01T04:05:05;109.40;;;46.95;;
42742;SDS011;28397;44.552;-0.848;2023-03-01T04:07:32;26.55;;;14.65;;
42742;SDS011;28397;44.552;-0.848;2023-03-01T04:09:59;12.95;;;8.30;;
42742;SDS011;28397;44.552;-0.848;2023-03-01T04:12:24;11.50;;;8.02;;
42742;SDS011;28397;44.552;-0.848;2023-03-01T04:14:50;10.40;;;7.07;;
42742;SDS011;28397;44.552;-0.848;2023-03-01T04:17:16;7.53;;;6.63;;
42742;SDS011;28397;44.552;-0.848;2023-03-01T04:19:42;7.40;;;6.15;;
42742;SDS011;28397;44.552;-0.848;2023-03-01T04:22:09;7.32;;;5.95;;
42742;SDS011;28397;44.552;-0.848;2023-03-01T04:24:36;7.65;;;5.80;;
42742;SDS011;28397;44.552;-0.848;2023-03-01T04:27:02;9.02;;;6.60;;
42742;SDS011;28397;44.552;-0.848;2023-03-01T04:29:27;9.88;;;6.93;;
42742;SDS011;28397;44.552;-0.848;2023-03-01T04:31:53;12.07;;;8.70;;
42742;SDS011;28397;44.552;-0.848;2023-03-01T04:34:19;14.02;;;10.18;;
42742;SDS011;28397;44.552;-0.848;2023-03-01T04:36:45;12.93;;;9.40;;
42742;SDS011;28397;44.552;-0.848;2023-03-01T04:39:10;13.98;;;10.18;;
42742;SDS011;28397;44.552;-0.848;2023-03-01T04:41:39;12.93;;;7.88;;
42742;SDS011;28397;44.552;-0.848;2023-03-01T04:44:06;9.85;;;6.95;;
42742;SDS011;28397;44.552;-0.848;2023-03-01T04:46:34;10.73;;;7.97;;
42742;SDS011;28397;44.552;-0.848;2023-03-01T04:49:00;10.50;;;7.53;;
42742;SDS011;28397;44.552;-0.848;2023-03-01T04:51:26;12.27;;;8.18;;
42742;SDS011;28397;44.552;-0.848;2023-03-01T04:53:52;11.95;;;8.27;;
42742;SDS011;28397;44.552;-0.848;2023-03-01T04:56:17;14.88;;;10.57;;
42742;SDS011;28397;44.552;-0.848;2023-03-01T04:58:43;23.20;;;13.93;;
42742;SDS011;28397;44.552;-0.848;2023-03-01T05:01:13;30.63;;;19.85;;
42742;SDS011;28397;44.552;-0.848;2023-03-01T05:03:45;40.50;;;23.17;;
42742;SDS011;28397;44.552;-0.848;2023-03-01T05:06:13;32.25;;;22.00;;
42742;SDS011;28397;44.552;-0.848;2023-03-01T05:08:40;35.33;;;23.73;;
42742;SDS011;28397;44.552;-0.848;2023-03-01T05:11:07;41.03;;;28.80;;
42742;SDS011;28397;44.552;-0.848;2023-03-01T05:13:34;62.47;;;44.33;;
42742;SDS011;28397;44.552;-0.848;2023-03-01T05:16:01;101.93;;;66.68;;
42742;SDS011;28397;44.552;-0.848;2023-03-01T05:18:29;91.28;;;58.15;;
42742;SDS011;28397;44.552;-0.848;2023-03-01T05:21:01;221.70;;;135.25;;
42742;SDS011;28397;44.552;-0.848;2023-03-01T05:23:32;41.00;;;27.73;;
42742;SDS011;28397;44.552;-0.848;2023-03-01T05:25:59;20.95;;;12.73;;
42742;SDS011;28397;44.552;-0.848;2023-03-01T05:28:26;13.32;;;7.88;;
42742;SDS011;28397;44.552;-0.848;2023-03-01T05:30:53;17.17;;;13.07;;
42742;SDS011;28397;44.552;-0.848;2023-03-01T05:33:19;16.80;;;10.77;;
42742;SDS011;28397;44.552;-0.848;2023-03-01T05:35:47;19.27;;;12.52;;
42742;SDS011;28397;44.552;-0.848;2023-03-01T05:38:13;14.45;;;10.48;;
42742;SDS011;28397;44.552;-0.848;2023-03-01T05:40:40;15.40;;;12.32;;
42742;SDS011;28397;44.552;-0.848;2023-03-01T05:43:08;15.95;;;12.48;;
42742;SDS011;28397;44.552;-0.848;2023-03-01T05:45:35;22.70;;;17.10;;
42742;SDS011;28397;44.552;-0.848;2023-03-01T05:48:02;48.38;;;29.50;;
42742;SDS011;28397;44.552;-0.848;2023-03-01T05:50:29;75.78;;;45.65;;
42742;SDS011;28397;44.552;-0.848;2023-03-01T05:52:58;140.65;;;83.00;;
42742;SDS011;28397;44.552;-0.848;2023-03-01T05:57:59;122.93;;;76.30;;
42742;SDS011;28397;44.552;-0.848;2023-03-01T06:00:27;49.17;;;34.92;;
42742;SDS011;28397;44.552;-0.848;2023-03-01T06:02:54;45.15;;;33.78;;
42742;SDS011;28397;44.552;-0.848;2023-03-01T06:05:20;27.73;;;20.92;;
42742;SDS011;28397;44.552;-0.848;2023-03-01T06:07:47;41.42;;;29.65;;
42742;SDS011;28397;44.552;-0.848;2023-03-01T06:10:13;112.88;;;70.00;;
42742;SDS011;28397;44.552;-0.848;2023-03-01T06:12:40;55.83;;;37.63;;
42742;SDS011;28397;44.552;-0.848;2023-03-01T06:15:07;37.17;;;27.83;;
42742;SDS011;28397;44.552;-0.848;2023-03-01T06:17:35;19.60;;;17.25;;
42742;SDS011;28397;44.552;-0.848;2023-03-01T06:20:07;17.23;;;14.05;;
42742;SDS011;28397;44.552;-0.848;2023-03-01T06:22:35;25.90;;;19.60;;
42742;SDS011;28397;44.552;-0.848;2023-03-01T06:25:01;21.63;;;15.48;;
42742;SDS011;28397;44.552;-0.848;2023-03-01T06:27:26;18.35;;;14.32;;
42742;SDS011;28397;44.552;-0.848;2023-03-01T06:29:52;26.42;;;18.75;;
42742;SDS011;28397;44.552;-0.848;2023-03-01T06:32:18;29.63;;;21.23;;
42742;SDS011;28397;44.552;-0.848;2023-03-01T06:34:44;63.25;;;47.63;;
42742;SDS011;28397;44.552;-0.848;2023-03-01T06:37:10;37.90;;;29.02;;
42742;SDS011;28397;44.552;-0.848;2023-03-01T06:39:36;26.48;;;21.73;;
42742;SDS011;28397;44.552;-0.848;2023-03-01T06:42:01;23.42;;;17.05;;
42742;SDS011;28397;44.552;-0.848;2023-03-01T06:44:28;20.88;;;17.75;;
42742;SDS011;28397;44.552;-0.848;2023-03-01T06:46:53;23.27;;;18.33;;
42742;SDS011;28397;44.552;-0.848;2023-03-01T06:49:19;14.00;;;11.20;;
42742;SDS011;28397;44.552;-0.848;2023-03-01T06:51:46;18.88;;;13.50;;
42742;SDS011;28397;44.552;-0.848;2023-03-01T06:54:12;14.45;;;11.13;;
42742;SDS011;28397;44.552;-0.848;2023-03-01T06:56:38;12.95;;;10.48;;
42742;SDS011;28397;44.552;-0.848;2023-03-01T06:59:04;13.43;;;10.35;;
42742;SDS011;28397;44.552;-0.848;2023-03-01T07:01:30;13.48;;;10.75;;
42742;SDS011;28397;44.552;-0.848;2023-03-01T07:03:56;17.88;;;14.30;;
42742;SDS011;28397;44.552;-0.848;2023-03-01T07:06:22;21.15;;;12.80;;
42742;SDS011;28397;44.552;-0.848;2023-03-01T07:08:48;18.42;;;14.02;;
42742;SDS011;28397;44.552;-0.848;2023-03-01T07:11:14;16.65;;;13.82;;
42742;SDS011;28397;44.552;-0.848;2023-03-01T07:13:40;20.20;;;15.27;;
42742;SDS011;28397;44.552;-0.848;2023-03-01T07:16:06;35.17;;;26.33;;
42742;SDS011;28397;44.552;-0.848;2023-03-01T07:18:32;18.50;;;15.27;;
42742;SDS011;28397;44.552;-0.848;2023-03-01T07:20:58;16.35;;;12.27;;
42742;SDS011;28397;44.552;-0.848;2023-03-01T07:23:23;12.93;;;10.40;;
42742;SDS011;28397;44.552;-0.848;2023-03-01T07:25:52;23.52;;;17.73;;
42742;SDS011;28397;44.552;-0.848;2023-03-01T07:28:18;17.35;;;12.80;;
42742;SDS011;28397;44.552;-0.848;2023-03-01T07:30:44;27.42;;;19.48;;
42742;SDS011;28397;44.552;-0.848;2023-03-01T07:33:10;18.30;;;14.82;;
42742;SDS011;28397;44.552;-0.848;2023-03-01T07:35:36;18.50;;;14.88;;
42742;SDS011;28397;44.552;-0.848;2023-03-01T07:38:01;23.52;;;19.08;;
42742;SDS011;28397;44.552;-0.848;2023-03-01T07:40:27;23.00;;;16.42;;
42742;SDS011;28397;44.552;-0.848;2023-03-01T07:42:56;16.60;;;12.48;;
42742;SDS011;28397;44.552;-0.848;2023-03-01T07:45:23;13.50;;;11.07;;
42742;SDS011;28397;44.552;-0.848;2023-03-01T07:47:50;13.10;;;10.38;;
42742;SDS011;28397;44.552;-0.848;2023-03-01T07:50:17;11.05;;;9.70;;
42742;SDS011;28397;44.552;-0.848;2023-03-01T07:52:44;11.52;;;10.32;;
42742;SDS011;28397;44.552;-0.848;2023-03-01T07:55:11;13.30;;;10.38;;
42742;SDS011;28397;44.552;-0.848;2023-03-01T07:57:37;11.52;;;9.73;;
42742;SDS011;28397;44.552;-0.848;2023-03-01T08:00:04;10.43;;;9.10;;
42742;SDS011;28397;44.552;-0.848;2023-03-01T08:02:30;13.75;;;11.35;;
42742;SDS011;28397;44.552;-0.848;2023-03-01T08:04:56;12.88;;;10.98;;
42742;SDS011;28397;44.552;-0.848;2023-03-01T08:07:22;11.30;;;10.10;;
42742;SDS011;28397;44.552;-0.848;2023-03-01T08:09:48;9.85;;;8.85;;
42742;SDS011;28397;44.552;-0.848;2023-03-01T08:12:13;8.85;;;8.05;;
42742;SDS011;28397;44.552;-0.848;2023-03-01T08:14:41;8.93;;;8.02;;
42742;SDS011;28397;44.552;-0.848;2023-03-01T08:17:07;9.77;;;8.77;;
42742;SDS011;28397;44.552;-0.848;2023-03-01T08:19:32;9.07;;;8.18;;
42742;SDS011;28397;44.552;-0.848;2023-03-01T08:21:59;9.27;;;8.40;;
42742;SDS011;28397;44.552;-0.848;2023-03-01T08:24:28;9.25;;;8.30;;
42742;SDS011;28397;44.552;-0.848;2023-03-01T08:26:54;8.80;;;7.93;;
42742;SDS011;28397;44.552;-0.848;2023-03-01T08:29:21;9.25;;;8.35;;
42742;SDS011;28397;44.552;-0.848;2023-03-01T08:31:47;11.60;;;9.55;;
42742;SDS011;28397;44.552;-0.848;2023-03-01T08:34:16;11.75;;;10.55;;
42742;SDS011;28397;44.552;-0.848;2023-03-01T08:36:43;12.02;;;10.63;;
42742;SDS011;28397;44.552;-0.848;2023-03-01T08:39:11;10.77;;;9.65;;
42742;SDS011;28397;44.552;-0.848;2023-03-01T08:41:38;9.63;;;8.57;;
42742;SDS011;28397;44.552;-0.848;2023-03-01T08:44:04;10.18;;;9.18;;
42742;SDS011;28397;44.552;-0.848;2023-03-01T08:46:31;9.88;;;8.98;;
42742;SDS011;28397;44.552;-0.848;2023-03-01T08:49:06;11.13;;;9.80;;
42742;SDS011;28397;44.552;-0.848;2023-03-01T08:51:42;10.50;;;9.13;;
42742;SDS011;28397;44.552;-0.848;2023-03-01T08:54:10;10.20;;;7.93;;
42742;SDS011;28397;44.552;-0.848;2023-03-01T08:56:41;10.63;;;9.18;;
42742;SDS011;28397;44.552;-0.848;2023-03-01T08:59:07;9.40;;;8.50;;
42742;SDS011;28397;44.552;-0.848;2023-03-01T09:01:34;15.77;;;10.73;;
42742;SDS011;28397;44.552;-0.848;2023-03-01T09:03:59;14.43;;;12.10;;
42742;SDS011;28397;44.552;-0.848;2023-03-01T09:06:25;12.15;;;9.00;;
42742;SDS011;28397;44.552;-0.848;2023-03-01T09:08:51;8.57;;;7.75;;
42742;SDS011;28397;44.552;-0.848;2023-03-01T09:11:18;8.82;;;7.53;;
42742;SDS011;28397;44.552;-0.848;2023-03-01T09:13:45;10.95;;;9.65;;
42742;SDS011;28397;44.552;-0.848;2023-03-01T09:16:13;10.18;;;9.20;;
42742;SDS011;28397;44.552;-0.848;2023-03-01T09:18:40;13.15;;;10.93;;
42742;SDS011;28397;44.552;-0.848;2023-03-01T09:21:07;10.57;;;9.23;;
42742;SDS011;28397;44.552;-0.848;2023-03-01T09:23:39;9.25;;;8.45;;
42742;SDS011;28397;44.552;-0.848;2023-03-01T09:26:07;9.10;;;8.30;;
42742;SDS011;28397;44.552;-0.848;2023-03-01T09:28:41;7.93;;;7.13;;
42742;SDS011;28397;44.552;-0.848;2023-03-01T09:31:09;8.57;;;7.78;;
42742;SDS011;28397;44.552;-0.848;2023-03-01T09:33:37;7.93;;;7.22;;
42742;SDS011;28397;44.552;-0.848;2023-03-01T09:36:04;7.35;;;6.47;;
42742;SDS011;28397;44.552;-0.848;2023-03-01T09:38:32;7.88;;;7.10;;
42742;SDS011;28397;44.552;-0.848;2023-03-01T09:40:58;9.68;;;7.10;;
42742;SDS011;28397;44.552;-0.848;2023-03-01T09:43:30;8.38;;;7.10;;
42742;SDS011;28397;44.552;-0.848;2023-03-01T09:46:13;8.00;;;7.20;;
42742;SDS011;28397;44.552;-0.848;2023-03-01T09:48:43;7.88;;;7.18;;
42742;SDS011;28397;44.552;-0.848;2023-03-01T09:51:16;7.85;;;6.95;;
42742;SDS011;28397;44.552;-0.848;2023-03-01T09:53:44;7.97;;;7.28;;
42742;SDS011;28397;44.552;-0.848;2023-03-01T09:56:18;7.93;;;7.15;;
42742;SDS011;28397;44.552;-0.848;2023-03-01T10:01:48;9.38;;;8.48;;
42742;SDS011;28397;44.552;-0.848;2023-03-01T10:04:45;11.90;;;10.05;;
42742;SDS011;28397;44.552;-0.848;2023-03-01T10:09:57;10.37;;;9.37;;
42742;SDS011;28397;44.552;-0.848;2023-03-01T10:12:26;7.20;;;6.50;;
42742;SDS011;28397;44.552;-0.848;2023-03-01T10:15:05;6.68;;;6.07;;
42742;SDS011;28397;44.552;-0.848;2023-03-01T10:17:54;7.95;;;6.30;;
42742;SDS011;28397;44.552;-0.848;2023-03-01T10:20:24;16.40;;;15.00;;
42742;SDS011;28397;44.552;-0.848;2023-03-01T10:23:10;7.93;;;6.85;;
42742;SDS011;28397;44.552;-0.848;2023-03-01T10:31:07;8.57;;;6.50;;
42742;SDS011;28397;44.552;-0.848;2023-03-01T10:33:38;7.10;;;6.10;;
42742;SDS011;28397;44.552;-0.848;2023-03-01T10:36:07;10.75;;;6.93;;
42742;SDS011;28397;44.552;-0.848;2023-03-01T10:38:50;6.93;;;6.22;;
42742;SDS011;28397;44.552;-0.848;2023-03-01T10:41:23;6.10;;;5.50;;
42742;SDS011;28397;44.552;-0.848;2023-03-01T10:43:55;6.68;;;5.97;;
42742;SDS011;28397;44.552;-0.848;2023-03-01T10:51:33;6.63;;;6.03;;
42742;SDS011;28397;44.552;-0.848;2023-03-01T10:53:58;7.35;;;6.30;;
42742;SDS011;28397;44.552;-0.848;2023-03-01T10:56:24;7.05;;;6.10;;
42742;SDS011;28397;44.552;-0.848;2023-03-01T10:58:57;7.57;;;6.78;;
42742;SDS011;28397;44.552;-0.848;2023-03-01T11:01:30;6.65;;;6.05;;
42742;SDS011;28397;44.552;-0.848;2023-03-01T11:04:17;6.68;;;6.07;;
42742;SDS011;28397;44.552;-0.848;2023-03-01T11:06:43;6.47;;;5.78;;
42742;SDS011;28397;44.552;-0.848;2023-03-01T11:09:23;11.93;;;8.30;;
42742;SDS011;28397;44.552;-0.848;2023-03-01T11:11:52;6.22;;;5.70;;
42742;SDS011;28397;44.552;-0.848;2023-03-01T11:14:26;6.85;;;5.57;;
42742;SDS011;28397;44.552;-0.848;2023-03-01T11:17:04;6.97;;;6.03;;
42742;SDS011;28397;44.552;-0.848;2023-03-01T11:19:36;6.50;;;5.72;;
42742;SDS011;28397;44.552;-0.848;2023-03-01T11:22:03;6.40;;;5.82;;
42742;SDS011;28397;44.552;-0.848;2023-03-01T11:24:37;7.25;;;6.03;;
42742;SDS011;28397;44.552;-0.848;2023-03-01T11:27:20;6.82;;;5.90;;
42742;SDS011;28397;44.552;-0.848;2023-03-01T11:30:05;6.57;;;5.85;;
42742;SDS011;28397;44.552;-0.848;2023-03-01T11:32:43;6.65;;;6.00;;
42742;SDS011;28397;44.552;-0.848;2023-03-01T11:35:21;10.15;;;9.18;;
42742;SDS011;28397;44.552;-0.848;2023-03-01T11:43:28;47.85;;;43.53;;
42742;SDS011;28397;44.552;-0.848;2023-03-01T11:57:17;6.90;;;6.20;;
42742;SDS011;28397;44.552;-0.848;2023-03-01T11:59:59;7.57;;;6.40;;
42742;SDS011;28397;44.552;-0.848;2023-03-01T12:25:48;10.52;;;7.72;;
42742;SDS011;28397;44.552;-0.848;2023-03-01T12:30:42;12.05;;;7.65;;
42742;SDS011;28397;44.552;-0.848;2023-03-01T12:33:19;8.00;;;7.28;;
42742;SDS011;28397;44.552;-0.848;2023-03-01T12:36:11;7.53;;;6.82;;
42742;SDS011;28397;44.552;-0.848;2023-03-01T12:38:50;8.20;;;7.50;;
42742;SDS011;28397;44.552;-0.848;2023-03-01T12:44:26;12.15;;;8.20;;
42742;SDS011;28397;44.552;-0.848;2023-03-01T12:49:57;8.38;;;7.60;;
42742;SDS011;28397;44.552;-0.848;2023-03-01T12:52:37;7.60;;;6.88;;
42742;SDS011;28397;44.552;-0.848;2023-03-01T12:55:09;9.27;;;7.93;;
42742;SDS011;28397;44.552;-0.848;2023-03-01T13:09:12;11.82;;;8.57;;
42742;SDS011;28397;44.552;-0.848;2023-03-01T13:11:41;9.55;;;7.70;;
42742;SDS011;28397;44.552;-0.848;2023-03-01T13:16:46;10.85;;;8.13;;
42742;SDS011;28397;44.552;-0.848;2023-03-01T13:19:20;8.45;;;7.55;;
42742;SDS011;28397;44.552;-0.848;2023-03-01T13:21:51;8.90;;;7.80;;
42742;SDS011;28397;44.552;-0.848;2023-03-01T13:24:35;15.77;;;14.15;;
42742;SDS011;28397;44.552;-0.848;2023-03-01T13:34:51;8.35;;;7.53;;
42742;SDS011;28397;44.552;-0.848;2023-03-01T13:37:28;8.30;;;6.95;;
42742;SDS011;28397;44.552;-0.848;2023-03-01T13:39:57;8.05;;;7.35;;
42742;SDS011;28397;44.552;-0.848;2023-03-01T13:42:36;8.55;;;7.65;;
42742;SDS011;28397;44.552;-0.848;2023-03-01T13:45:12;9.07;;;7.07;;
42742;SDS011;28397;44.552;-0.848;2023-03-01T13:47:47;9.88;;;7.40;;
42742;SDS011;28397;44.552;-0.848;2023-03-01T13:50:22;8.32;;;7.53;;
42742;SDS011;28397;44.552;-0.848;2023-03-01T13:53:02;8.40;;;7.60;;
42742;SDS011;28397;44.552;-0.848;2023-03-01T13:55:36;10.35;;;9.38;;
42742;SDS011;28397;44.552;-0.848;2023-03-01T13:58:26;8.23;;;7.40;;
42742;SDS011;28397;44.552;-0.848;2023-03-01T14:00:58;7.60;;;6.80;;
42742;SDS011;28397;44.552;-0.848;2023-03-01T14:03:28;7.78;;;7.00;;
42742;SDS011;28397;44.552;-0.848;2023-03-01T14:08:27;8.98;;;8.05;;
42742;SDS011;28397;44.552;-0.848;2023-03-01T14:19:23;8.88;;;8.07;;
42742;SDS011;28397;44.552;-0.848;2023-03-01T14:24:37;7.88;;;7.07;;
42742;SDS011;28397;44.552;-0.848;2023-03-01T14:27:11;7.20;;;6.50;;
42742;SDS011;28397;44.552;-0.848;2023-03-01T14:29:38;7.35;;;6.60;;
42742;SDS011;28397;44.552;-0.848;2023-03-01T14:32:27;7.97;;;6.63;;
42742;SDS011;28397;44.552;-0.848;2023-03-01T14:34:54;6.75;;;6.10;;
42742;SDS011;28397;44.552;-0.848;2023-03-01T14:39:55;13.32;;;11.85;;
42742;SDS011;28397;44.552;-0.848;2023-03-01T14:42:22;7.20;;;6.50;;
42742;SDS011;28397;44.552;-0.848;2023-03-01T14:44:52;7.65;;;6.82;;
42742;SDS011;28397;44.552;-0.848;2023-03-01T14:47:29;7.43;;;6.63;;
42742;SDS011;28397;44.552;-0.848;2023-03-01T14:50:05;7.78;;;6.75;;
42742;SDS011;28397;44.552;-0.848;2023-03-01T14:52:45;10.95;;;8.00;;
42742;SDS011;28397;44.552;-0.848;2023-03-01T14:55:15;8.77;;;6.88;;
42742;SDS011;28397;44.552;-0.848;2023-03-01T14:57:49;11.48;;;9.27;;
42742;SDS011;28397;44.552;-0.848;2023-03-01T15:00:50;9.98;;;8.75;;
42742;SDS011;28397;44.552;-0.848;2023-03-01T15:03:35;10.70;;;7.18;;
42742;SDS011;28397;44.552;-0.848;2023-03-01T15:06:04;7.18;;;6.47;;
42742;SDS011;28397;44.552;-0.848;2023-03-01T15:08:31;9.63;;;7.78;;
42742;SDS011;28397;44.552;-0.848;2023-03-01T15:13:33;10.35;;;8.43;;
42742;SDS011;28397;44.552;-0.848;2023-03-01T15:16:10;14.55;;;12.77;;
42742;SDS011;28397;44.552;-0.848;2023-03-01T15:18:46;10.20;;;8.18;;
42742;SDS011;28397;44.552;-0.848;2023-03-01T15:21:33;8.43;;;7.47;;
42742;SDS011;28397;44.552;-0.848;2023-03-01T15:26:46;8.93;;;8.02;;
42742;SDS011;28397;44.552;-0.848;2023-03-01T15:29:19;7.80;;;7.00;;
42742;SDS011;28397;44.552;-0.848;2023-03-01T15:31:58;8.35;;;6.82;;
42742;SDS011;28397;44.552;-0.848;2023-03-01T15:34:25;14.60;;;11.73;;
42742;SDS011;28397;44.552;-0.848;2023-03-01T15:36:57;15.57;;;9.80;;
42742;SDS011;28397;44.552;-0.848;2023-03-01T15:39:33;9.75;;;7.78;;
42742;SDS011;28397;44.552;-0.848;2023-03-01T15:42:02;12.07;;;8.75;;
42742;SDS011;28397;44.552;-0.848;2023-03-01T15:44:36;10.18;;;9.13;;
42742;SDS011;28397;44.552;-0.848;2023-03-01T15:47:25;11.95;;;9.35;;
42742;SDS011;28397;44.552;-0.848;2023-03-01T15:49:54;10.75;;;9.20;;
42742;SDS011;28397;44.552;-0.848;2023-03-01T15:52:25;13.75;;;10.13;;
42742;SDS011;28397;44.552;-0.848;2023-03-01T15:54:56;11.88;;;10.70;;
42742;SDS011;28397;44.552;-0.848;2023-03-01T15:57:26;13.57;;;11.93;;
42742;SDS011;28397;44.552;-0.848;2023-03-01T15:59:52;13.15;;;11.77;;
42742;SDS011;28397;44.552;-0.848;2023-03-01T16:02:18;17.95;;;12.93;;
42742;SDS011;28397;44.552;-0.848;2023-03-01T16:04:46;19.42;;;16.77;;
42742;SDS011;28397;44.552;-0.848;2023-03-01T16:07:13;14.15;;;12.65;;
42742;SDS011;28397;44.552;-0.848;2023-03-01T16:09:39;14.65;;;12.90;;
42742;SDS011;28397;44.552;-0.848;2023-03-01T16:12:08;14.80;;;13.20;;
42742;SDS011;28397;44.552;-0.848;2023-03-01T16:14:39;18.38;;;14.45;;
42742;SDS011;28397;44.552;-0.848;2023-03-01T16:17:05;16.17;;;14.38;;
42742;SDS011;28397;44.552;-0.848;2023-03-01T16:19:32;15.68;;;13.85;;
42742;SDS011;28397;44.552;-0.848;2023-03-01T16:21:58;16.88;;;14.52;;
42742;SDS011;28397;44.552;-0.848;2023-03-01T16:24:24;19.13;;;17.13;;
42742;SDS011;28397;44.552;-0.848;2023-03-01T16:26:51;18.10;;;15.93;;
42742;SDS011;28397;44.552;-0.848;2023-03-01T16:29:16;16.85;;;15.15;;
42742;SDS011;28397;44.552;-0.848;2023-03-01T16:31:42;15.70;;;14.07;;
42742;SDS011;28397;44.552;-0.848;2023-03-01T16:34:07;18.48;;;14.65;;